sensor_id;sensor_type;location;lat;lon;timestamp;pressure;altitude;pressure_sealevel;temperature;humidity
59009;BME280;44794;42.652;23.318;2023-08-31T00:01:45;94029.19;;;19.33;72.65
59009;BME280;44794;42.652;23.318;2023-08-31T00:04:13;94030.53;;;19.29;73.18
59009;BME280;44794;42.652;23.318;2023-08-31T00:06:40;94034.00;;;19.29;73.04
59009;BME280;44794;42.652;23.318;2023-08-31T00:09:06;94026.44;;;19.26;74.02
59009;BME280;44794;42.652;23.318;2023-08-31T00:11:35;94024.53;;;19.20;74.04
59009;BME280;44794;42.652;23.318;2023-08-31T00:14:00;94028.91;;;19.05;74.75
59009;BME280;44794;42.652;23.318;2023-08-31T00:16:26;94030.72;;;19.05;74.58
59009;BME280;44794;42.652;23.318;2023-08-31T00:18:52;94028.91;;;19.05;75.03
59009;BME280;44794;42.652;23.318;2023-08-31T00:21:18;94022.97;;;19.03;75.66
59009;BME280;44794;42.652;23.318;2023-08-31T00:23:43;94021.91;;;18.98;76.12
59009;BME280;44794;42.652;23.318;2023-08-31T00:26:08;94027.84;;;18.92;76.18
59009;BME280;44794;42.652;23.318;2023-08-31T00:28:34;94031.19;;;18.86;77.28
59009;BME280;44794;42.652;23.318;2023-08-31T00:31:01;94024.81;;;18.81;77.54
59009;BME280;44794;42.652;23.318;2023-08-31T00:33:28;94035.88;;;18.76;78.26
59009;BME280;44794;42.652;23.318;2023-08-31T00:35:54;94045.00;;;18.66;78.70
59009;BME280;44794;42.652;23.318;2023-08-31T00:38:21;94035.97;;;18.60;79.11
59009;BME280;44794;42.652;23.318;2023-08-31T00:40:46;94037.63;;;18.61;79.33
59009;BME280;44794;42.652;23.318;2023-08-31T00:43:15;94045.97;;;18.65;78.98
59009;BME280;44794;42.652;23.318;2023-08-31T00:45:41;94051.19;;;18.73;78.15
59009;BME280;44794;42.652;23.318;2023-08-31T00:48:06;94058.72;;;18.76;78.52
59009;BME280;44794;42.652;23.318;2023-08-31T00:50:32;94058.56;;;18.77;78.38
59009;BME280;44794;42.652;23.318;2023-08-31T00:52:58;94052.47;;;18.77;78.18
59009;BME280;44794;42.652;23.318;2023-08-31T00:55:24;94055.75;;;18.79;78.51
59009;BME280;44794;42.652;23.318;2023-08-31T00:57:49;94050.00;;;18.75;78.55
59009;BME280;44794;42.652;23.318;2023-08-31T01:00:15;94056.09;;;18.76;78.72
59009;BME280;44794;42.652;23.318;2023-08-31T01:03:09;94057.91;;;18.75;78.80
59009;BME280;44794;42.652;23.318;2023-08-31T01:06:01;94047.91;;;18.71;79.19
59009;BME280;44794;42.652;23.318;2023-08-31T01:14:11;94051.19;;;18.73;78.90
59009;BME280;44794;42.652;23.318;2023-08-31T01:16:39;94056.78;;;18.70;79.14
59009;BME280;44794;42.652;23.318;2023-08-31T01:19:40;94055.63;;;18.72;79.42
59009;BME280;44794;42.652;23.318;2023-08-31T01:22:00;94065.34;;;18.72;79.56
59009;BME280;44794;42.652;23.318;2023-08-31T01:24:29;94064.34;;;18.73;79.80
59009;BME280;44794;42.652;23.318;2023-08-31T01:26:55;94065.34;;;18.72;79.90
59009;BME280;44794;42.652;23.318;2023-08-31T01:29:22;94060.78;;;18.66;79.86
59009;BME280;44794;42.652;23.318;2023-08-31T01:31:48;94059.47;;;18.62;80.53
59009;BME280;44794;42.652;23.318;2023-08-31T01:34:13;94054.03;;;18.63;80.63
59009;BME280;44794;42.652;23.318;2023-08-31T01:36:42;94048.13;;;18.61;80.87
59009;BME280;44794;42.652;23.318;2023-08-31T01:41:38;94059.50;;;18.54;81.12
59009;BME280;44794;42.652;23.318;2023-08-31T01:44:08;94060.84;;;18.50;81.21
59009;BME280;44794;42.652;23.318;2023-08-31T01:46:34;94047.41;;;18.45;81.02
59009;BME280;44794;42.652;23.318;2023-08-31T01:49:00;94048.22;;;18.45;80.92
59009;BME280;44794;42.652;23.318;2023-08-31T01:51:25;94044.59;;;18.46;85.25
59009;BME280;44794;42.652;23.318;2023-08-31T01:53:51;94047.63;;;18.35;84.17
59009;BME280;44794;42.652;23.318;2023-08-31T01:56:17;94056.66;;;18.33;83.38
59009;BME280;44794;42.652;23.318;2023-08-31T01:58:42;94053.22;;;18.32;83.41
59009;BME280;44794;42.652;23.318;2023-08-31T02:01:07;94056.84;;;18.31;84.15
59009;BME280;44794;42.652;23.318;2023-08-31T02:03:33;94060.63;;;18.29;84.81
59009;BME280;44794;42.652;23.318;2023-08-31T02:05:58;94059.69;;;18.22;86.44
59009;BME280;44794;42.652;23.318;2023-08-31T02:08:24;94067.09;;;18.10;86.68
59009;BME280;44794;42.652;23.318;2023-08-31T02:10:49;94064.34;;;18.04;86.72
59009;BME280;44794;42.652;23.318;2023-08-31T02:13:15;94077.16;;;17.99;87.77
59009;BME280;44794;42.652;23.318;2023-08-31T02:15:41;94073.56;;;17.92;88.95
59009;BME280;44794;42.652;23.318;2023-08-31T02:18:07;94080.16;;;17.88;89.40
59009;BME280;44794;42.652;23.318;2023-08-31T02:20:33;94075.91;;;17.79;90.05
59009;BME280;44794;42.652;23.318;2023-08-31T02:22:59;94078.53;;;17.71;90.53
59009;BME280;44794;42.652;23.318;2023-08-31T02:25:25;94080.19;;;17.64;90.85
59009;BME280;44794;42.652;23.318;2023-08-31T02:27:53;94073.66;;;17.60;91.63
59009;BME280;44794;42.652;23.318;2023-08-31T02:30:19;94070.06;;;17.53;92.10
59009;BME280;44794;42.652;23.318;2023-08-31T02:32:45;94063.84;;;17.46;93.32
59009;BME280;44794;42.652;23.318;2023-08-31T02:35:10;94058.75;;;17.37;94.37
59009;BME280;44794;42.652;23.318;2023-08-31T02:37:37;94056.94;;;17.30;95.85
59009;BME280;44794;42.652;23.318;2023-08-31T02:40:03;94052.34;;;17.24;96.23
59009;BME280;44794;42.652;23.318;2023-08-31T02:42:28;94055.94;;;17.15;97.16
59009;BME280;44794;42.652;23.318;2023-08-31T02:44:54;94055.63;;;17.10;96.92
59009;BME280;44794;42.652;23.318;2023-08-31T02:47:19;94066.13;;;17.02;97.56
59009;BME280;44794;42.652;23.318;2023-08-31T02:49:45;94058.91;;;16.96;98.44
59009;BME280;44794;42.652;23.318;2023-08-31T02:52:10;94064.50;;;16.93;98.74
59009;BME280;44794;42.652;23.318;2023-08-31T02:54:36;94054.97;;;16.84;99.30
59009;BME280;44794;42.652;23.318;2023-08-31T02:57:01;94064.31;;;16.78;100.00
59009;BME280;44794;42.652;23.318;2023-08-31T02:59:27;94069.06;;;16.75;100.00
59009;BME280;44794;42.652;23.318;2023-08-31T03:01:53;94075.44;;;16.72;100.00
59009;BME280;44794;42.652;23.318;2023-08-31T03:04:18;94077.75;;;16.67;100.00
59009;BME280;44794;42.652;23.318;2023-08-31T03:06:43;94090.66;;;16.61;100.00
59009;BME280;44794;42.652;23.318;2023-08-31T03:09:09;94087.38;;;16.59;100.00
59009;BME280;44794;42.652;23.318;2023-08-31T03:11:35;94088.53;;;16.56;100.00
59009;BME280;44794;42.652;23.318;2023-08-31T03:14:00;94088.03;;;16.53;100.00
59009;BME280;44794;42.652;23.318;2023-08-31T03:16:25;94088.34;;;16.50;100.00
59009;BME280;44794;42.652;23.318;2023-08-31T03:18:51;94093.59;;;16.50;100.00
59009;BME280;44794;42.652;23.318;2023-08-31T03:21:16;94090.63;;;16.45;100.00
59009;BME280;44794;42.652;23.318;2023-08-31T03:23:42;94094.06;;;16.46;100.00
59009;BME280;44794;42.652;23.318;2023-08-31T03:26:08;94096.88;;;16.44;100.00
59009;BME280;44794;42.652;23.318;2023-08-31T03:28:33;94085.22;;;16.39;100.00
59009;BME280;44794;42.652;23.318;2023-08-31T03:30:59;94090.94;;;16.34;100.00
59009;BME280;44794;42.652;23.318;2023-08-31T03:33:24;94084.94;;;16.24;100.00
59009;BME280;44794;42.652;23.318;2023-08-31T03:35:50;94076.75;;;16.19;100.00
59009;BME280;44794;42.652;23.318;2023-08-31T03:38:15;94080.81;;;16.14;100.00
59009;BME280;44794;42.652;23.318;2023-08-31T03:40:41;94091.47;;;16.12;100.00
59009;BME280;44794;42.652;23.318;2023-08-31T03:43:06;94090.16;;;16.08;100.00
59009;BME280;44794;42.652;23.318;2023-08-31T03:45:31;94085.22;;;16.05;100.00
59009;BME280;44794;42.652;23.318;2023-08-31T03:47:57;94087.84;;;16.05;100.00
59009;BME280;44794;42.652;23.318;2023-08-31T03:50:22;94094.88;;;16.05;100.00
59009;BME280;44794;42.652;23.318;2023-08-31T03:52:48;94098.00;;;16.08;100.00
59009;BME280;44794;42.652;23.318;2023-08-31T03:55:13;94106.84;;;16.07;100.00
59009;BME280;44794;42.652;23.318;2023-08-31T03:57:39;94104.06;;;16.09;100.00
59009;BME280;44794;42.652;23.318;2023-08-31T04:00:04;94111.44;;;16.13;100.00
59009;BME280;44794;42.652;23.318;2023-08-31T04:02:38;94115.38;;;16.09;100.00
59009;BME280;44794;42.652;23.318;2023-08-31T04:05:03;94124.28;;;15.91;100.00
59009;BME280;44794;42.652;23.318;2023-08-31T04:07:31;94122.56;;;16.07;100.00
59009;BME280;44794;42.652;23.318;2023-08-31T04:09:57;94130.59;;;16.06;100.00
59009;BME280;44794;42.652;23.318;2023-08-31T04:12:22;94140.31;;;16.21;100.00
59009;BME280;44794;42.652;23.318;2023-08-31T04:14:47;94137.75;;;16.29;100.00
59009;BME280;44794;42.652;23.318;2023-08-31T04:17:13;94149.25;;;16.36;100.00
59009;BME280;44794;42.652;23.318;2023-08-31T04:19:38;94152.88;;;16.43;100.00
59009;BME280;44794;42.652;23.318;2023-08-31T04:22:04;94156.66;;;16.49;100.00
59009;BME280;44794;42.652;23.318;2023-08-31T04:24:30;94164.41;;;16.58;100.00
59009;BME280;44794;42.652;23.318;2023-08-31T04:26:55;94160.16;;;16.65;100.00
59009;BME280;44794;42.652;23.318;2023-08-31T04:29:21;94161.50;;;16.77;100.00
59009;BME280;44794;42.652;23.318;2023-08-31T04:31:46;94167.78;;;16.92;100.00
59009;BME280;44794;42.652;23.318;2023-08-31T04:34:11;94164.53;;;17.06;100.00
59009;BME280;44794;42.652;23.318;2023-08-31T04:36:37;94173.38;;;17.13;100.00
59009;BME280;44794;42.652;23.318;2023-08-31T04:39:02;94175.69;;;17.24;100.00
59009;BME280;44794;42.652;23.318;2023-08-31T04:41:28;94171.09;;;17.26;100.00
59009;BME280;44794;42.652;23.318;2023-08-31T04:43:54;94171.47;;;17.38;100.00
59009;BME280;44794;42.652;23.318;2023-08-31T04:46:19;94179.34;;;17.54;100.00
59009;BME280;44794;42.652;23.318;2023-08-31T04:48:45;94180.97;;;17.63;100.00
59009;BME280;44794;42.652;23.318;2023-08-31T04:51:30;94183.28;;;17.82;99.45
59009;BME280;44794;42.652;23.318;2023-08-31T04:53:56;94189.00;;;17.94;97.81
59009;BME280;44794;42.652;23.318;2023-08-31T04:56:21;94193.41;;;18.09;96.39
59009;BME280;44794;42.652;23.318;2023-08-31T04:58:47;94190.78;;;18.25;93.87
59009;BME280;44794;42.652;23.318;2023-08-31T05:01:12;94203.38;;;18.45;92.36
59009;BME280;44794;42.652;23.318;2023-08-31T05:03:38;94210.03;;;18.64;91.44
59009;BME280;44794;42.652;23.318;2023-08-31T05:06:03;94205.03;;;18.84;89.68
59009;BME280;44794;42.652;23.318;2023-08-31T05:08:30;94205.75;;;19.09;88.04
59009;BME280;44794;42.652;23.318;2023-08-31T05:10:55;94210.94;;;19.25;86.92
59009;BME280;44794;42.652;23.318;2023-08-31T05:13:20;94204.75;;;19.40;87.19
59009;BME280;44794;42.652;23.318;2023-08-31T05:15:46;94217.44;;;19.59;85.22
59009;BME280;44794;42.652;23.318;2023-08-31T05:18:11;94217.03;;;19.70;83.14
59009;BME280;44794;42.652;23.318;2023-08-31T05:20:36;94228.47;;;19.85;81.40
59009;BME280;44794;42.652;23.318;2023-08-31T05:23:02;94225.72;;;19.93;79.39
59009;BME280;44794;42.652;23.318;2023-08-31T05:25:28;94230.84;;;20.17;77.88
59009;BME280;44794;42.652;23.318;2023-08-31T05:27:53;94235.03;;;20.26;75.91
59009;BME280;44794;42.652;23.318;2023-08-31T05:30:19;94232.41;;;20.40;73.78
59009;BME280;44794;42.652;23.318;2023-08-31T05:32:44;94229.44;;;20.57;72.63
59009;BME280;44794;42.652;23.318;2023-08-31T05:35:09;94238.03;;;20.88;71.02
59009;BME280;44794;42.652;23.318;2023-08-31T05:37:35;94235.72;;;21.64;67.76
59009;BME280;44794;42.652;23.318;2023-08-31T05:40:03;94240.69;;;23.31;56.46
59009;BME280;44794;42.652;23.318;2023-08-31T05:42:31;94266.06;;;24.96;49.60
59009;BME280;44794;42.652;23.318;2023-08-31T05:44:57;94274.28;;;26.69;44.12
59009;BME280;44794;42.652;23.318;2023-08-31T05:47:22;94281.66;;;28.64;41.28
59009;BME280;44794;42.652;23.318;2023-08-31T05:49:47;94291.41;;;28.99;38.06
59009;BME280;44794;42.652;23.318;2023-08-31T05:52:13;94296.16;;;29.77;36.47
59009;BME280;44794;42.652;23.318;2023-08-31T05:54:38;94291.63;;;29.32;36.82
59009;BME280;44794;42.652;23.318;2023-08-31T05:57:04;94293.44;;;29.89;36.24
59009;BME280;44794;42.652;23.318;2023-08-31T05:59:30;94285.09;;;29.63;36.10
59009;BME280;44794;42.652;23.318;2023-08-31T06:01:56;94278.38;;;29.60;36.15
59009;BME280;44794;42.652;23.318;2023-08-31T06:04:21;94288.84;;;30.68;34.97
59009;BME280;44794;42.652;23.318;2023-08-31T06:06:46;94286.91;;;31.62;33.34
59009;BME280;44794;42.652;23.318;2023-08-31T06:09:12;94293.06;;;32.43;33.32
59009;BME280;44794;42.652;23.318;2023-08-31T06:11:38;94290.19;;;32.49;32.13
59009;BME280;44794;42.652;23.318;2023-08-31T06:14:04;94304.25;;;33.40;30.24
59009;BME280;44794;42.652;23.318;2023-08-31T06:16:29;94301.03;;;32.81;30.51
59009;BME280;44794;42.652;23.318;2023-08-31T06:18:55;94299.91;;;32.29;31.43
59009;BME280;44794;42.652;23.318;2023-08-31T06:21:20;94299.09;;;33.34;30.47
59009;BME280;44794;42.652;23.318;2023-08-31T06:23:46;94307.22;;;33.07;30.52
59009;BME280;44794;42.652;23.318;2023-08-31T06:26:11;94311.31;;;34.43;28.65
59009;BME280;44794;42.652;23.318;2023-08-31T06:28:36;94307.47;;;33.37;30.03
59009;BME280;44794;42.652;23.318;2023-08-31T06:31:02;94312.13;;;32.63;30.89
59009;BME280;44794;42.652;23.318;2023-08-31T06:33:27;94312.59;;;33.07;30.82
59009;BME280;44794;42.652;23.318;2023-08-31T06:35:53;94322.81;;;33.73;29.98
59009;BME280;44794;42.652;23.318;2023-08-31T06:38:19;94319.50;;;32.98;31.23
59009;BME280;44794;42.652;23.318;2023-08-31T06:40:44;94317.44;;;33.42;30.16
59009;BME280;44794;42.652;23.318;2023-08-31T06:43:10;94321.53;;;34.32;29.40
59009;BME280;44794;42.652;23.318;2023-08-31T06:45:35;94321.53;;;34.27;28.89
59009;BME280;44794;42.652;23.318;2023-08-31T06:48:01;94322.66;;;33.17;29.77
59009;BME280;44794;42.652;23.318;2023-08-31T06:50:26;94322.75;;;31.89;31.36
59009;BME280;44794;42.652;23.318;2023-08-31T06:52:52;94324.75;;;32.14;31.70
59009;BME280;44794;42.652;23.318;2023-08-31T06:55:17;94320.41;;;32.35;31.37
59009;BME280;44794;42.652;23.318;2023-08-31T06:57:42;94329.03;;;32.84;30.70
59009;BME280;44794;42.652;23.318;2023-08-31T07:00:09;94323.81;;;31.33;32.31
59009;BME280;44794;42.652;23.318;2023-08-31T07:02:39;94307.50;;;28.70;36.64
59009;BME280;44794;42.652;23.318;2023-08-31T07:05:05;94308.66;;;27.68;38.60
59009;BME280;44794;42.652;23.318;2023-08-31T07:07:31;94305.59;;;27.05;40.39
59009;BME280;44794;42.652;23.318;2023-08-31T07:09:56;94296.09;;;26.29;42.66
59009;BME280;44794;42.652;23.318;2023-08-31T07:12:22;94293.09;;;25.63;44.62
59009;BME280;44794;42.652;23.318;2023-08-31T07:14:47;94288.28;;;25.47;45.29
59009;BME280;44794;42.652;23.318;2023-08-31T07:17:13;94295.69;;;25.32;45.81
59009;BME280;44794;42.652;23.318;2023-08-31T07:19:38;94296.44;;;25.45;46.02
59009;BME280;44794;42.652;23.318;2023-08-31T07:22:04;94302.19;;;25.42;45.75
59009;BME280;44794;42.652;23.318;2023-08-31T07:24:31;94297.56;;;24.93;46.43
59009;BME280;44794;42.652;23.318;2023-08-31T07:26:56;94301.44;;;24.77;45.59
59009;BME280;44794;42.652;23.318;2023-08-31T07:29:22;94292.47;;;24.59;45.85
59009;BME280;44794;42.652;23.318;2023-08-31T07:31:47;94287.09;;;24.26;46.97
59009;BME280;44794;42.652;23.318;2023-08-31T07:34:13;94296.13;;;24.58;47.29
59009;BME280;44794;42.652;23.318;2023-08-31T07:36:38;94278.53;;;24.63;46.48
59009;BME280;44794;42.652;23.318;2023-08-31T07:39:04;94294.91;;;24.60;46.34
59009;BME280;44794;42.652;23.318;2023-08-31T07:41:30;94295.72;;;24.54;46.04
59009;BME280;44794;42.652;23.318;2023-08-31T07:43:55;94299.59;;;24.58;43.87
59009;BME280;44794;42.652;23.318;2023-08-31T07:46:21;94301.03;;;24.48;43.09
59009;BME280;44794;42.652;23.318;2023-08-31T07:48:46;94298.16;;;24.49;43.56
59009;BME280;44794;42.652;23.318;2023-08-31T07:51:13;94301.13;;;24.08;43.86
59009;BME280;44794;42.652;23.318;2023-08-31T07:53:39;94290.75;;;24.13;44.13
59009;BME280;44794;42.652;23.318;2023-08-31T07:56:04;94308.09;;;24.15;44.20
59009;BME280;44794;42.652;23.318;2023-08-31T07:58:30;94309.13;;;24.27;44.04
59009;BME280;44794;42.652;23.318;2023-08-31T08:00:56;94298.91;;;24.18;43.93
59009;BME280;44794;42.652;23.318;2023-08-31T08:03:22;94305.69;;;24.39;43.63
59009;BME280;44794;42.652;23.318;2023-08-31T08:05:48;94311.25;;;24.57;43.28
59009;BME280;44794;42.652;23.318;2023-08-31T08:08:13;94317.38;;;24.97;42.88
59009;BME280;44794;42.652;23.318;2023-08-31T08:10:39;94319.59;;;25.25;42.17
59009;BME280;44794;42.652;23.318;2023-08-31T08:13:04;94323.47;;;25.42;41.22
59009;BME280;44794;42.652;23.318;2023-08-31T08:15:30;94323.41;;;25.55;41.18
59009;BME280;44794;42.652;23.318;2023-08-31T08:17:56;94322.56;;;25.68;41.05
59009;BME280;44794;42.652;23.318;2023-08-31T08:20:24;94335.69;;;25.56;37.90
59009;BME280;44794;42.652;23.318;2023-08-31T08:22:50;94336.50;;;25.63;37.46
59009;BME280;44794;42.652;23.318;2023-08-31T08:25:18;94339.13;;;25.76;35.42
59009;BME280;44794;42.652;23.318;2023-08-31T08:27:44;94327.41;;;25.90;36.19
59009;BME280;44794;42.652;23.318;2023-08-31T08:30:09;94331.03;;;26.02;36.70
59009;BME280;44794;42.652;23.318;2023-08-31T08:32:35;94319.97;;;26.05;36.74
59009;BME280;44794;42.652;23.318;2023-08-31T08:35:00;94319.50;;;26.14;36.55
59009;BME280;44794;42.652;23.318;2023-08-31T08:37:26;94313.75;;;26.17;37.21
59009;BME280;44794;42.652;23.318;2023-08-31T08:39:51;94325.56;;;26.28;37.04
59009;BME280;44794;42.652;23.318;2023-08-31T08:42:18;94332.69;;;26.03;36.18
59009;BME280;44794;42.652;23.318;2023-08-31T08:44:44;94333.59;;;25.71;37.26
59009;BME280;44794;42.652;23.318;2023-08-31T08:47:11;94327.50;;;25.58;37.67
59009;BME280;44794;42.652;23.318;2023-08-31T08:49:37;94323.41;;;25.75;37.61
59009;BME280;44794;42.652;23.318;2023-08-31T08:52:03;94322.16;;;25.77;37.76
59009;BME280;44794;42.652;23.318;2023-08-31T08:54:29;94319.91;;;26.18;38.10
59009;BME280;44794;42.652;23.318;2023-08-31T08:56:56;94323.91;;;26.33;36.48
59009;BME280;44794;42.652;23.318;2023-08-31T08:59:21;94323.28;;;26.31;36.95
59009;BME280;44794;42.652;23.318;2023-08-31T09:01:48;94331.84;;;26.46;35.89
59009;BME280;44794;42.652;23.318;2023-08-31T09:04:13;94319.56;;;26.69;36.22
59009;BME280;44794;42.652;23.318;2023-08-31T09:06:39;94325.22;;;26.86;34.99
59009;BME280;44794;42.652;23.318;2023-08-31T09:09:07;94316.34;;;26.67;34.68
59009;BME280;44794;42.652;23.318;2023-08-31T09:11:35;94320.72;;;26.80;34.55
59009;BME280;44794;42.652;23.318;2023-08-31T09:14:16;94318.97;;;25.99;35.71
59009;BME280;44794;42.652;23.318;2023-08-31T09:16:48;94318.97;;;26.37;35.34
59009;BME280;44794;42.652;23.318;2023-08-31T09:19:24;94318.59;;;26.40;35.38
59009;BME280;44794;42.652;23.318;2023-08-31T09:21:52;94320.75;;;26.12;35.68
59009;BME280;44794;42.652;23.318;2023-08-31T09:24:18;94323.66;;;26.04;36.85
59009;BME280;44794;42.652;23.318;2023-08-31T09:26:44;94318.59;;;25.26;38.14
59009;BME280;44794;42.652;23.318;2023-08-31T09:29:13;94322.59;;;25.55;37.85
59009;BME280;44794;42.652;23.318;2023-08-31T09:31:45;94327.03;;;25.80;36.72
59009;BME280;44794;42.652;23.318;2023-08-31T09:34:12;94317.81;;;25.82;36.81
59009;BME280;44794;42.652;23.318;2023-08-31T09:36:38;94324.94;;;25.95;36.26
59009;BME280;44794;42.652;23.318;2023-08-31T09:39:05;94323.28;;;26.31;36.07
59009;BME280;44794;42.652;23.318;2023-08-31T09:41:31;94316.38;;;26.61;35.44
59009;BME280;44794;42.652;23.318;2023-08-31T09:44:14;94316.25;;;26.74;34.21
59009;BME280;44794;42.652;23.318;2023-08-31T09:46:40;94317.75;;;26.94;33.86
59009;BME280;44794;42.652;23.318;2023-08-31T09:49:06;94312.16;;;26.78;34.13
59009;BME280;44794;42.652;23.318;2023-08-31T09:51:33;94317.28;;;27.04;33.48
59009;BME280;44794;42.652;23.318;2023-08-31T09:54:02;94318.28;;;27.27;33.05
59009;BME280;44794;42.652;23.318;2023-08-31T09:56:32;94305.56;;;27.29;34.29
59009;BME280;44794;42.652;23.318;2023-08-31T09:58:58;94315.34;;;27.53;33.94
59009;BME280;44794;42.652;23.318;2023-08-31T10:01:24;94322.91;;;27.56;33.86
59009;BME280;44794;42.652;23.318;2023-08-31T10:03:50;94308.97;;;27.36;33.40
59009;BME280;44794;42.652;23.318;2023-08-31T10:06:16;94310.31;;;27.03;34.20
59009;BME280;44794;42.652;23.318;2023-08-31T10:08:41;94310.94;;;26.74;35.09
59009;BME280;44794;42.652;23.318;2023-08-31T10:11:08;94311.16;;;26.42;35.15
59009;BME280;44794;42.652;23.318;2023-08-31T10:13:38;94300.66;;;26.16;34.63
59009;BME280;44794;42.652;23.318;2023-08-31T10:16:05;94307.44;;;26.12;34.95
59009;BME280;44794;42.652;23.318;2023-08-31T10:18:34;94302.91;;;26.50;35.04
59009;BME280;44794;42.652;23.318;2023-08-31T10:21:01;94303.78;;;26.44;33.13
59009;BME280;44794;42.652;23.318;2023-08-31T10:23:27;94315.56;;;26.60;33.02
59009;BME280;44794;42.652;23.318;2023-08-31T10:28:26;94310.41;;;26.65;33.72
59009;BME280;44794;42.652;23.318;2023-08-31T10:31:15;94308.88;;;26.76;33.97
59009;BME280;44794;42.652;23.318;2023-08-31T10:33:47;94313.84;;;27.21;33.14
59009;BME280;44794;42.652;23.318;2023-08-31T10:36:19;94317.06;;;27.05;32.36
59009;BME280;44794;42.652;23.318;2023-08-31T10:38:50;94312.66;;;27.35;32.50
59009;BME280;44794;42.652;23.318;2023-08-31T10:41:25;94321.13;;;27.50;32.48
59009;BME280;44794;42.652;23.318;2023-08-31T10:43:58;94329.31;;;27.13;32.55
59009;BME280;44794;42.652;23.318;2023-08-31T10:49:21;94324.38;;;27.34;32.02
59009;BME280;44794;42.652;23.318;2023-08-31T10:51:49;94330.06;;;27.62;32.43
59009;BME280;44794;42.652;23.318;2023-08-31T10:54:26;94322.53;;;28.06;31.53
59009;BME280;44794;42.652;23.318;2023-08-31T10:56:55;94335.38;;;28.33;31.09
59009;BME280;44794;42.652;23.318;2023-08-31T10:59:41;94309.41;;;28.22;30.47
59009;BME280;44794;42.652;23.318;2023-08-31T11:02:07;94327.13;;;28.17;30.72
59009;BME280;44794;42.652;23.318;2023-08-31T11:04:55;94326.53;;;28.62;30.74
59009;BME280;44794;42.652;23.318;2023-08-31T11:07:27;94324.41;;;28.93;30.61
59009;BME280;44794;42.652;23.318;2023-08-31T11:10:16;94330.69;;;29.10;30.22
59009;BME280;44794;42.652;23.318;2023-08-31T11:12:59;94326.56;;;29.37;29.71
59009;BME280;44794;42.652;23.318;2023-08-31T11:15:26;94329.09;;;28.98;31.07
59009;BME280;44794;42.652;23.318;2023-08-31T11:17:54;94326.00;;;28.42;32.06
59009;BME280;44794;42.652;23.318;2023-08-31T11:20:20;94318.59;;;28.09;32.70
59009;BME280;44794;42.652;23.318;2023-08-31T11:22:49;94337.41;;;27.66;33.35
59009;BME280;44794;42.652;23.318;2023-08-31T11:25:16;94327.50;;;28.03;33.21
59009;BME280;44794;42.652;23.318;2023-08-31T11:27:41;94325.50;;;28.16;32.78
59009;BME280;44794;42.652;23.318;2023-08-31T11:30:16;94331.78;;;28.39;32.72
59009;BME280;44794;42.652;23.318;2023-08-31T11:32:46;94320.81;;;28.29;32.50
59009;BME280;44794;42.652;23.318;2023-08-31T11:35:11;94322.16;;;28.03;33.02
59009;BME280;44794;42.652;23.318;2023-08-31T11:37:37;94325.16;;;27.95;33.29
59009;BME280;44794;42.652;23.318;2023-08-31T11:40:03;94328.28;;;27.74;33.21
59009;BME280;44794;42.652;23.318;2023-08-31T11:42:31;94328.13;;;27.69;33.21
59009;BME280;44794;42.652;23.318;2023-08-31T11:44:57;94317.66;;;28.03;32.90
59009;BME280;44794;42.652;23.318;2023-08-31T11:47:23;94316.16;;;28.07;32.25
59009;BME280;44794;42.652;23.318;2023-08-31T11:49:50;94320.34;;;28.03;34.67
59009;BME280;44794;42.652;23.318;2023-08-31T11:52:16;94310.56;;;27.19;36.63
59009;BME280;44794;42.652;23.318;2023-08-31T11:54:42;94301.03;;;26.81;37.35
59009;BME280;44794;42.652;23.318;2023-08-31T11:57:09;94303.03;;;26.61;37.26
59009;BME280;44794;42.652;23.318;2023-08-31T11:59:36;94298.59;;;26.18;38.32
59009;BME280;44794;42.652;23.318;2023-08-31T12:02:05;94296.16;;;26.54;38.24
59009;BME280;44794;42.652;23.318;2023-08-31T12:04:32;94297.50;;;26.62;37.69
59009;BME280;44794;42.652;23.318;2023-08-31T12:07:02;94296.03;;;26.66;36.89
59009;BME280;44794;42.652;23.318;2023-08-31T12:09:32;94313.69;;;26.30;38.37
59009;BME280;44794;42.652;23.318;2023-08-31T12:11:57;94304.41;;;26.08;38.74
59009;BME280;44794;42.652;23.318;2023-08-31T12:14:25;94312.56;;;26.13;38.21
59009;BME280;44794;42.652;23.318;2023-08-31T12:16:52;94295.00;;;26.06;38.58
59009;BME280;44794;42.652;23.318;2023-08-31T12:19:18;94292.72;;;26.47;38.05
59009;BME280;44794;42.652;23.318;2023-08-31T12:21:44;94294.28;;;27.09;37.09
59009;BME280;44794;42.652;23.318;2023-08-31T12:24:11;94296.16;;;27.27;36.73
59009;BME280;44794;42.652;23.318;2023-08-31T12:26:37;94294.56;;;27.19;36.31
59009;BME280;44794;42.652;23.318;2023-08-31T12:29:03;94286.78;;;26.69;37.08
59009;BME280;44794;42.652;23.318;2023-08-31T12:31:32;94289.28;;;26.40;37.47
59009;BME280;44794;42.652;23.318;2023-08-31T12:33:58;94294.19;;;26.67;37.63
59009;BME280;44794;42.652;23.318;2023-08-31T12:36:25;94285.75;;;26.46;38.20
59009;BME280;44794;42.652;23.318;2023-08-31T12:38:50;94288.66;;;26.38;38.53
59009;BME280;44794;42.652;23.318;2023-08-31T12:41:17;94284.78;;;26.34;38.31
59009;BME280;44794;42.652;23.318;2023-08-31T12:43:42;94293.44;;;26.23;38.55
59009;BME280;44794;42.652;23.318;2023-08-31T12:46:07;94288.47;;;26.33;38.11
59009;BME280;44794;42.652;23.318;2023-08-31T12:48:34;94288.88;;;26.30;38.17
59009;BME280;44794;42.652;23.318;2023-08-31T12:51:00;94286.94;;;26.50;37.87
59009;BME280;44794;42.652;23.318;2023-08-31T12:53:25;94289.84;;;26.42;37.87
59009;BME280;44794;42.652;23.318;2023-08-31T12:55:52;94288.25;;;26.34;37.82
59009;BME280;44794;42.652;23.318;2023-08-31T12:58:18;94292.09;;;26.45;37.77
59009;BME280;44794;42.652;23.318;2023-08-31T13:00:44;94290.13;;;26.34;37.80